createdAt,value
2023-03-05T00:02:21.488Z,2.22
2023-03-05T00:04:47.966Z,2.01
2023-03-05T00:07:14.452Z,2.06
2023-03-05T00:09:40.932Z,1.94
2023-03-05T00:12:07.608Z,1.92
2023-03-05T00:14:34.052Z,2.06
2023-03-05T00:17:00.606Z,1.96
2023-03-05T00:19:27.046Z,2.10
2023-03-05T00:21:53.693Z,2.07
2023-03-05T00:24:20.159Z,2.00
2023-03-05T00:26:47.162Z,1.83
2023-03-05T00:29:30.106Z,1.90
2023-03-05T00:31:57.841Z,1.65
2023-03-05T00:34:25.805Z,1.57
2023-03-05T00:36:52.469Z,1.68
2023-03-05T00:39:20.814Z,0.99
2023-03-05T00:41:47.271Z,1.21
2023-03-05T00:44:13.787Z,1.22
2023-03-05T00:46:40.504Z,1.38
2023-03-05T00:49:07.754Z,1.26
2023-03-05T00:51:34.604Z,1.22
2023-03-05T00:54:01.822Z,1.32
2023-03-05T00:56:28.391Z,1.25
2023-03-05T00:58:54.876Z,1.13
2023-03-05T01:01:21.589Z,1.24
2023-03-05T01:03:48.373Z,1.15
2023-03-05T01:06:17.075Z,1.23
2023-03-05T01:08:43.957Z,1.28
2023-03-05T01:11:11.309Z,1.22
2023-03-05T01:13:38.216Z,1.17
2023-03-05T01:16:05.076Z,1.12
2023-03-05T01:18:31.648Z,0.77
2023-03-05T01:20:58.190Z,0.90
2023-03-05T01:23:24.891Z,0.90
2023-03-05T01:25:59.076Z,1.04
2023-03-05T01:28:26.940Z,1.06
2023-03-05T01:30:53.411Z,1.14
2023-03-05T01:33:20.168Z,1.11
2023-03-05T01:35:50.395Z,1.17
2023-03-05T01:38:17.957Z,1.25
2023-03-05T01:40:44.518Z,1.31
2023-03-05T01:43:11.316Z,1.12
2023-03-05T01:45:38.775Z,1.15
2023-03-05T01:48:05.287Z,1.02
2023-03-05T01:50:32.939Z,1.08
2023-03-05T01:53:02.517Z,0.97
2023-03-05T01:55:29.491Z,0.94
2023-03-05T01:57:58.114Z,0.99
2023-03-05T02:00:30.121Z,1.02
2023-03-05T02:02:57.477Z,0.88
2023-03-05T02:05:27.142Z,0.81
2023-03-05T02:07:57.561Z,0.81
2023-03-05T02:10:25.409Z,0.94
2023-03-05T02:12:53.138Z,0.98
2023-03-05T02:15:20.178Z,0.89
2023-03-05T02:17:46.658Z,0.77
2023-03-05T02:20:15.170Z,0.70
2023-03-05T02:22:42.052Z,0.70
2023-03-05T02:25:19.659Z,0.69
2023-03-05T02:28:02.165Z,0.70
2023-03-05T02:30:28.726Z,0.44
2023-03-05T02:32:55.181Z,0.53
2023-03-05T02:35:22.238Z,0.49
2023-03-05T02:37:49.170Z,0.47
2023-03-05T02:40:16.201Z,0.39
2023-03-05T02:42:42.811Z,0.13
2023-03-05T02:45:11.227Z,-0.09
2023-03-05T02:47:37.830Z,0.27
2023-03-05T02:50:05.077Z,0.17
2023-03-05T02:52:31.887Z,0.29
2023-03-05T02:54:58.372Z,0.32
2023-03-05T02:57:25.113Z,0.39
2023-03-05T02:59:52.433Z,0.47
2023-03-05T03:02:19.194Z,0.38
2023-03-05T03:04:45.917Z,0.13
2023-03-05T03:07:13.276Z,0.36
2023-03-05T03:09:40.069Z,0.27
2023-03-05T03:12:06.960Z,0.10
2023-03-05T03:14:39.770Z,0.03
2023-03-05T03:17:06.760Z,0.18
2023-03-05T03:19:33.412Z,0.18
2023-03-05T03:21:59.945Z,0.14
2023-03-05T03:24:26.573Z,0.18
2023-03-05T03:26:53.116Z,0.08
2023-03-05T03:29:19.540Z,0.00
2023-03-05T03:31:46.135Z,0.06
2023-03-05T03:34:13.244Z,-0.11
2023-03-05T03:36:39.767Z,-0.08
2023-03-05T03:39:06.313Z,-0.10
2023-03-05T03:41:33.167Z,-0.13
2023-03-05T03:43:59.879Z,0.06
2023-03-05T03:46:26.394Z,-0.02
2023-03-05T03:48:52.911Z,0.04
2023-03-05T03:51:19.356Z,-0.10
2023-03-05T03:53:45.865Z,-0.07
2023-03-05T03:56:12.305Z,-0.09
2023-03-05T03:58:38.746Z,-0.12
2023-03-05T04:01:05.324Z,0.01
2023-03-05T04:03:31.752Z,-0.11
2023-03-05T04:05:59.893Z,-0.43
2023-03-05T04:08:28.574Z,-0.35
2023-03-05T04:10:57.096Z,-0.28
2023-03-05T04:13:24.946Z,-0.21
2023-03-05T04:15:53.504Z,-0.27
2023-03-05T04:18:20.606Z,-0.45
2023-03-05T04:20:47.134Z,-0.46
2023-03-05T04:23:13.612Z,-0.53
2023-03-05T04:25:40.101Z,-0.59
2023-03-05T04:28:06.562Z,-0.47
2023-03-05T04:30:33.039Z,-0.53
2023-03-05T04:32:59.466Z,-0.51
2023-03-05T04:35:26.199Z,-0.70
2023-03-05T04:37:52.760Z,-0.81
2023-03-05T04:40:19.337Z,-0.78
2023-03-05T04:42:45.861Z,-0.56
2023-03-05T04:45:12.450Z,-0.53
2023-03-05T04:47:39.005Z,-0.56
2023-03-05T04:50:06.459Z,-0.73
2023-03-05T04:52:32.939Z,-0.90
2023-03-05T04:54:59.464Z,-0.74
2023-03-05T04:57:26.027Z,-0.62
2023-03-05T04:59:52.502Z,-0.52
2023-03-05T05:02:18.942Z,-0.64
2023-03-05T05:04:45.907Z,-0.63
2023-03-05T05:07:12.824Z,-0.66
2023-03-05T05:09:41.595Z,-1.02
2023-03-05T05:12:08.265Z,-1.05
2023-03-05T05:14:34.806Z,-0.79
2023-03-05T05:17:04.990Z,-0.72
2023-03-05T05:19:32.253Z,-0.83
2023-03-05T05:21:58.803Z,-1.08
2023-03-05T05:24:25.379Z,-1.07
2023-03-05T05:26:54.103Z,-0.71
2023-03-05T05:29:20.630Z,-0.67
2023-03-05T05:31:47.255Z,-0.86
2023-03-05T05:34:13.869Z,-0.86
2023-03-05T05:36:40.291Z,-0.64
2023-03-05T05:39:06.787Z,-0.57
2023-03-05T05:41:33.335Z,-0.70
2023-03-05T05:43:59.828Z,-0.51
2023-03-05T05:46:26.441Z,-0.56
2023-03-05T05:48:52.873Z,-0.60
2023-03-05T05:51:20.987Z,-0.59
2023-03-05T05:53:47.426Z,-0.69
2023-03-05T05:56:14.426Z,-0.49
2023-03-05T05:58:41.239Z,-0.32
2023-03-05T06:01:18.689Z,-0.31
2023-03-05T06:03:45.351Z,-0.20
2023-03-05T06:06:12.480Z,0.00
2023-03-05T06:08:39.055Z,0.24
2023-03-05T06:11:07.329Z,0.28
2023-03-05T06:13:34.407Z,0.13
2023-03-05T06:16:06.293Z,0.30
2023-03-05T06:18:33.784Z,0.75
2023-03-05T06:21:01.235Z,1.02
2023-03-05T06:23:28.132Z,0.68
2023-03-05T06:25:55.109Z,0.69
2023-03-05T06:28:22.028Z,0.93
2023-03-05T06:30:48.543Z,1.07
2023-03-05T06:33:15.049Z,1.22
2023-03-05T06:35:41.549Z,0.87
2023-03-05T06:38:08.411Z,1.39
2023-03-05T06:40:35.268Z,1.57
2023-03-05T06:43:01.723Z,1.94
2023-03-05T06:45:28.259Z,2.08
2023-03-05T06:47:54.798Z,2.39
2023-03-05T06:50:21.358Z,2.50
2023-03-05T06:52:50.996Z,2.77
2023-03-05T06:55:18.064Z,2.90
2023-03-05T06:57:44.740Z,3.22
2023-03-05T07:00:11.669Z,3.17
2023-03-05T07:02:38.543Z,3.46
2023-03-05T07:05:06.553Z,3.77
2023-03-05T07:07:33.454Z,4.42
2023-03-05T07:09:59.948Z,4.51
2023-03-05T07:12:26.400Z,4.59
2023-03-05T07:14:52.824Z,4.35
2023-03-05T07:17:19.376Z,5.04
2023-03-05T07:19:45.838Z,5.30
2023-03-05T07:22:12.296Z,5.18
2023-03-05T07:24:38.801Z,5.69
2023-03-05T07:27:05.297Z,5.95
2023-03-05T07:29:31.762Z,5.95
2023-03-05T07:31:58.272Z,5.86
2023-03-05T07:34:27.067Z,6.96
2023-03-05T07:36:53.891Z,7.54
2023-03-05T07:39:20.437Z,7.17
2023-03-05T07:41:47.709Z,7.07
2023-03-05T07:44:14.803Z,7.24
2023-03-05T07:46:41.832Z,7.11
2023-03-05T07:49:08.498Z,7.06
2023-03-05T07:51:35.056Z,6.85
2023-03-05T07:54:01.521Z,7.12
2023-03-05T07:56:29.871Z,7.22
2023-03-05T07:58:56.344Z,7.00
2023-03-05T08:01:22.958Z,7.37
2023-03-05T08:03:49.643Z,7.82
2023-03-05T08:06:16.221Z,7.64
2023-03-05T08:08:43.087Z,7.06
2023-03-05T08:11:10.512Z,8.64
2023-03-05T08:13:38.620Z,8.27
2023-03-05T08:16:10.008Z,9.03
2023-03-05T08:18:36.814Z,8.93
2023-03-05T08:21:03.651Z,8.55
2023-03-05T08:23:30.262Z,8.47
2023-03-05T08:25:57.161Z,8.28
2023-03-05T08:28:23.746Z,8.17
2023-03-05T08:30:50.373Z,8.98
2023-03-05T08:33:17.638Z,8.92
2023-03-05T08:35:44.177Z,9.02
2023-03-05T08:38:10.699Z,9.61
2023-03-05T08:40:37.175Z,8.90
2023-03-05T08:43:05.762Z,8.78
2023-03-05T08:45:32.411Z,9.68
2023-03-05T08:47:58.853Z,10.15
2023-03-05T08:50:26.010Z,10.35
2023-03-05T08:52:52.500Z,10.21
2023-03-05T08:55:19.053Z,9.63
2023-03-05T08:57:45.551Z,8.78
2023-03-05T09:00:12.806Z,8.94
2023-03-05T09:02:40.009Z,8.49
2023-03-05T09:05:06.805Z,9.46
2023-03-05T09:07:33.212Z,8.76
2023-03-05T09:09:59.704Z,8.76
2023-03-05T09:12:26.285Z,9.86
2023-03-05T09:14:54.407Z,9.51
2023-03-05T09:17:20.927Z,9.02
2023-03-05T09:19:47.388Z,8.30
2023-03-05T09:22:13.815Z,9.76
2023-03-05T09:24:40.263Z,10.43
2023-03-05T09:27:06.745Z,10.43
2023-03-05T09:29:33.278Z,10.45
2023-03-05T09:31:59.805Z,10.86
2023-03-05T09:34:26.360Z,10.98
2023-03-05T09:36:52.828Z,11.51
2023-03-05T09:39:19.334Z,11.01
2023-03-05T09:41:51.761Z,10.76
2023-03-05T09:44:24.693Z,11.30
2023-03-05T09:46:52.890Z,11.24
2023-03-05T09:49:37.823Z,10.34
2023-03-05T09:52:13.146Z,10.52
2023-03-05T09:54:44.687Z,10.45
2023-03-05T09:57:15.256Z,11.14
2023-03-05T09:59:54.061Z,10.45
2023-03-05T10:02:23.128Z,10.27
2023-03-05T10:04:55.098Z,10.80
2023-03-05T10:07:27.671Z,11.09
2023-03-05T10:09:57.026Z,10.56
2023-03-05T10:12:25.267Z,11.30
2023-03-05T10:14:51.937Z,11.91
2023-03-05T10:17:30.852Z,12.36
2023-03-05T10:19:57.901Z,12.42
2023-03-05T10:22:28.221Z,12.64
2023-03-05T10:25:13.331Z,12.05
2023-03-05T10:27:46.554Z,12.18
2023-03-05T10:30:33.974Z,12.19
2023-03-05T10:33:05.604Z,11.91
2023-03-05T10:35:46.399Z,12.25
2023-03-05T10:38:19.455Z,12.73
2023-03-05T10:40:46.840Z,12.43
2023-03-05T10:43:19.115Z,12.44
2023-03-05T10:45:47.279Z,13.21
2023-03-05T10:48:32.235Z,13.85
2023-03-05T10:51:05.007Z,13.52
2023-03-05T10:53:36.983Z,12.93
2023-03-05T10:56:04.806Z,13.05
2023-03-05T10:58:31.626Z,13.98
2023-03-05T11:01:04.270Z,12.77
2023-03-05T11:03:49.365Z,13.36
2023-03-05T11:06:26.192Z,13.85
2023-03-05T11:08:52.668Z,14.46
2023-03-05T11:11:20.691Z,13.82
2023-03-05T11:13:52.909Z,13.75
2023-03-05T11:16:24.646Z,13.79
2023-03-05T11:19:10.660Z,14.30
2023-03-05T11:21:37.245Z,13.87
2023-03-05T11:24:13.814Z,13.71
2023-03-05T11:26:48.449Z,13.86
2023-03-05T11:29:25.621Z,13.80
2023-03-05T11:31:52.894Z,13.90
2023-03-05T11:34:19.382Z,14.04
2023-03-05T11:36:58.039Z,14.03
2023-03-05T11:39:25.434Z,14.25
2023-03-05T11:41:57.923Z,13.00
2023-03-05T11:44:24.404Z,12.10
2023-03-05T11:46:52.747Z,12.58
2023-03-05T11:49:21.522Z,12.56
2023-03-05T11:51:50.942Z,12.78
2023-03-05T11:54:21.301Z,14.10
2023-03-05T11:56:47.761Z,14.18
2023-03-05T11:59:27.139Z,13.82
2023-03-05T12:01:55.432Z,14.62
2023-03-05T12:04:22.365Z,14.35
2023-03-05T12:06:59.651Z,14.11
2023-03-05T12:09:28.856Z,13.93
2023-03-05T12:12:06.467Z,14.15
2023-03-05T12:14:36.829Z,14.24
2023-03-05T12:17:09.497Z,14.42
2023-03-05T12:19:36.185Z,13.90
2023-03-05T12:22:04.079Z,12.97
2023-03-05T12:24:30.522Z,14.00
2023-03-05T12:27:06.762Z,13.53
2023-03-05T12:29:33.228Z,13.53
2023-03-05T12:32:00.993Z,14.13
2023-03-05T12:34:39.506Z,14.21
2023-03-05T12:37:13.460Z,13.38
2023-03-05T12:39:40.367Z,14.35
2023-03-05T12:42:27.094Z,14.02
2023-03-05T12:45:11.887Z,13.84
2023-03-05T12:47:42.840Z,13.64
2023-03-05T12:50:27.725Z,12.87
2023-03-05T12:52:54.168Z,14.43
2023-03-05T12:55:23.672Z,14.84
2023-03-05T12:57:54.433Z,13.26
2023-03-05T13:00:33.576Z,13.05
2023-03-05T13:03:02.141Z,12.72
2023-03-05T13:05:33.075Z,13.30
2023-03-05T13:08:22.844Z,13.08
2023-03-05T13:10:52.415Z,13.73
2023-03-05T13:13:20.669Z,12.35
2023-03-05T13:15:48.883Z,12.76
2023-03-05T13:18:23.829Z,12.61
2023-03-05T13:21:02.153Z,12.93
2023-03-05T13:23:29.156Z,12.95
2023-03-05T13:25:57.172Z,13.50
2023-03-05T13:28:23.828Z,12.28
2023-03-05T13:30:54.736Z,11.28
2023-03-05T13:33:29.135Z,12.35
2023-03-05T13:35:55.678Z,10.83
2023-03-05T13:38:44.287Z,10.59
2023-03-05T13:41:10.778Z,11.72
2023-03-05T13:43:55.844Z,12.32
2023-03-05T13:46:23.470Z,12.17
2023-03-05T13:48:50.044Z,12.00
2023-03-05T13:51:16.774Z,11.89
2023-03-05T13:53:43.456Z,12.00
2023-03-05T13:56:14.620Z,11.79
2023-03-05T13:58:41.367Z,12.28
2023-03-05T14:01:26.231Z,12.29
2023-03-05T14:03:53.965Z,12.57
2023-03-05T14:06:21.812Z,12.77
2023-03-05T14:08:52.173Z,13.03
2023-03-05T14:11:19.563Z,13.34
2023-03-05T14:13:47.002Z,13.72
2023-03-05T14:16:15.723Z,13.04
2023-03-05T14:18:55.984Z,13.41
2023-03-05T14:21:22.654Z,12.91
2023-03-05T14:23:51.632Z,14.08
2023-03-05T14:26:34.948Z,13.51
2023-03-05T14:29:07.160Z,12.75
2023-03-05T14:31:39.363Z,13.25
2023-03-05T14:34:07.172Z,13.52
2023-03-05T14:36:34.035Z,13.02
2023-03-05T14:39:01.036Z,12.55
2023-03-05T14:41:35.859Z,12.54
2023-03-05T14:44:02.777Z,12.65
2023-03-05T14:46:29.300Z,12.95
2023-03-05T14:48:55.925Z,12.76
2023-03-05T14:51:23.906Z,13.14
2023-03-05T14:53:51.123Z,13.13
2023-03-05T14:56:21.882Z,13.34
2023-03-05T14:58:48.345Z,12.34
2023-03-05T15:01:14.888Z,12.07
2023-03-05T15:03:41.686Z,11.84
2023-03-05T15:06:38.041Z,11.64
2023-03-05T15:09:05.933Z,11.14
2023-03-05T15:11:32.387Z,11.13
2023-03-05T15:13:58.844Z,11.17
2023-03-05T15:16:25.465Z,11.38
2023-03-05T15:18:51.960Z,11.34
2023-03-05T15:21:18.391Z,11.10
2023-03-05T15:23:45.278Z,11.32
2023-03-05T15:26:13.407Z,11.06
2023-03-05T15:28:40.907Z,10.87
2023-03-05T15:31:08.138Z,10.24
2023-03-05T15:33:34.704Z,9.86
2023-03-05T15:36:01.297Z,9.90
2023-03-05T15:38:27.846Z,9.32
2023-03-05T15:40:54.852Z,9.37
2023-03-05T15:43:21.382Z,9.42
2023-03-05T15:45:48.148Z,9.35
2023-03-05T15:48:14.892Z,9.60
2023-03-05T15:50:43.180Z,9.23
2023-03-05T15:53:11.779Z,9.23
2023-03-05T15:55:39.460Z,8.94
2023-03-05T15:58:06.223Z,8.87
2023-03-05T16:00:34.602Z,8.93
2023-03-05T16:03:01.165Z,8.96
2023-03-05T16:05:27.654Z,8.84
2023-03-05T16:07:54.759Z,8.73
2023-03-05T16:10:23.965Z,8.70
2023-03-05T16:12:52.345Z,8.43
2023-03-05T16:15:19.878Z,8.51
2023-03-05T16:17:48.491Z,8.25
2023-03-05T16:20:15.311Z,8.14
2023-03-05T16:22:41.905Z,8.13
2023-03-05T16:25:08.595Z,8.11
2023-03-05T16:27:35.109Z,8.44
2023-03-05T16:30:01.805Z,8.25
2023-03-05T16:32:28.265Z,8.26
2023-03-05T16:34:54.809Z,8.44
2023-03-05T16:37:22.609Z,8.46
2023-03-05T16:39:49.180Z,8.24
2023-03-05T16:42:16.250Z,7.99
2023-03-05T16:44:43.273Z,8.02
2023-03-05T16:47:12.138Z,7.87
2023-03-05T16:49:38.997Z,7.89
2023-03-05T16:52:16.393Z,7.96
2023-03-05T16:54:44.724Z,7.82
2023-03-05T16:57:11.258Z,7.68
2023-03-05T16:59:37.763Z,7.64
2023-03-05T17:02:04.548Z,7.52
2023-03-05T17:04:31.418Z,7.34
2023-03-05T17:06:57.912Z,7.09
2023-03-05T17:09:24.547Z,7.10
2023-03-05T17:11:51.821Z,6.83
2023-03-05T17:14:18.320Z,6.57
2023-03-05T17:16:45.060Z,6.87
2023-03-05T17:19:11.624Z,6.57
2023-03-05T17:21:40.002Z,6.54
2023-03-05T17:24:07.876Z,6.30
2023-03-05T17:26:36.320Z,6.39
2023-03-05T17:29:03.496Z,6.02
2023-03-05T17:31:30.179Z,6.03
2023-03-05T17:33:57.132Z,5.87
2023-03-05T17:36:23.879Z,6.00
2023-03-05T17:38:50.484Z,6.09
2023-03-05T17:41:17.869Z,6.03
2023-03-05T17:43:44.583Z,5.77
2023-03-05T17:46:11.476Z,5.73
2023-03-05T17:48:39.225Z,5.74
2023-03-05T17:51:09.934Z,5.69
2023-03-05T17:53:38.777Z,5.51
2023-03-05T17:56:09.231Z,5.26
2023-03-05T17:58:35.936Z,5.05
2023-03-05T18:01:02.706Z,5.26
2023-03-05T18:03:29.267Z,5.06
2023-03-05T18:05:55.706Z,4.84
2023-03-05T18:08:22.189Z,4.99
2023-03-05T18:10:48.832Z,4.87
2023-03-05T18:13:15.267Z,5.03
2023-03-05T18:15:47.356Z,4.74
2023-03-05T18:18:17.336Z,4.68
2023-03-05T18:20:43.912Z,4.77
2023-03-05T18:23:10.945Z,4.65
2023-03-05T18:25:37.446Z,4.53
2023-03-05T18:28:08.590Z,4.52
2023-03-05T18:30:35.212Z,4.63
2023-03-05T18:33:01.990Z,4.53
2023-03-05T18:35:29.305Z,4.34
2023-03-05T18:37:56.603Z,4.02
2023-03-05T18:40:24.202Z,3.98
2023-03-05T18:42:51.116Z,4.16
2023-03-05T18:45:18.569Z,4.08
2023-03-05T18:47:45.152Z,4.05
2023-03-05T18:50:14.752Z,4.12
2023-03-05T18:52:42.149Z,4.15
2023-03-05T18:55:12.583Z,3.88
2023-03-05T18:57:39.101Z,3.77
2023-03-05T19:00:05.860Z,3.79
2023-03-05T19:02:34.396Z,3.65
2023-03-05T19:05:01.044Z,3.56
2023-03-05T19:07:27.800Z,3.89
2023-03-05T19:09:58.940Z,3.67
2023-03-05T19:12:30.893Z,3.81
2023-03-05T19:14:58.361Z,3.82
2023-03-05T19:17:25.203Z,3.81
2023-03-05T19:19:55.541Z,3.66
2023-03-05T19:22:23.015Z,3.63
2023-03-05T19:24:49.444Z,3.81
2023-03-05T19:27:15.942Z,3.84
2023-03-05T19:29:43.232Z,4.02
2023-03-05T19:32:11.578Z,3.93
2023-03-05T19:34:38.244Z,4.08
2023-03-05T19:37:05.023Z,4.09
2023-03-05T19:39:31.966Z,4.04
2023-03-05T19:41:58.452Z,4.41
2023-03-05T19:44:24.919Z,4.47
2023-03-05T19:46:51.424Z,4.58
2023-03-05T19:49:18.537Z,4.77
2023-03-05T19:51:45.560Z,4.77
2023-03-05T19:54:13.060Z,4.87
2023-03-05T19:56:40.238Z,4.80
2023-03-05T19:59:06.726Z,4.88
2023-03-05T20:01:33.598Z,4.87
2023-03-05T20:04:01.102Z,4.91
2023-03-05T20:06:28.393Z,5.10
2023-03-05T20:08:55.417Z,5.02
2023-03-05T20:11:22.235Z,5.01
2023-03-05T20:13:49.165Z,4.98
2023-03-05T20:16:21.972Z,5.07
2023-03-05T20:18:52.733Z,5.06
2023-03-05T20:21:23.230Z,5.15
2023-03-05T20:23:50.783Z,5.17
2023-03-05T20:26:17.287Z,5.19
2023-03-05T20:28:43.983Z,5.25
2023-03-05T20:31:10.538Z,5.22
2023-03-05T20:33:37.493Z,5.13
2023-03-05T20:36:04.267Z,5.18
2023-03-05T20:38:31.212Z,5.24
2023-03-05T20:41:17.276Z,5.31
2023-03-05T20:43:45.056Z,5.56
2023-03-05T20:46:22.552Z,5.43
2023-03-05T20:48:50.373Z,5.53
2023-03-05T20:51:22.468Z,5.45
2023-03-05T20:53:49.849Z,5.58
2023-03-05T20:56:16.639Z,5.44
2023-03-05T20:58:43.294Z,5.56
2023-03-05T21:01:09.792Z,5.59
2023-03-05T21:03:37.288Z,5.61
2023-03-05T21:06:04.411Z,5.52
2023-03-05T21:08:31.241Z,5.57
2023-03-05T21:10:58.284Z,5.55
2023-03-05T21:13:25.375Z,5.42
2023-03-05T21:15:52.148Z,5.75
2023-03-05T21:18:18.719Z,5.82
2023-03-05T21:20:45.182Z,5.52
2023-03-05T21:23:11.680Z,5.55
2023-03-05T21:25:38.226Z,5.52
2023-03-05T21:28:10.763Z,5.45
2023-03-05T21:30:43.538Z,5.54
2023-03-05T21:33:11.543Z,5.49
2023-03-05T21:35:38.467Z,5.57
2023-03-05T21:38:05.592Z,5.55
2023-03-05T21:40:32.573Z,5.37
2023-03-05T21:42:59.397Z,5.47
2023-03-05T21:45:26.980Z,5.58
2023-03-05T21:47:53.467Z,5.58
2023-03-05T21:50:21.257Z,5.56
2023-03-05T21:52:47.804Z,5.49
2023-03-05T21:55:18.918Z,5.50
2023-03-05T21:57:46.882Z,5.43
2023-03-05T22:00:14.252Z,5.44
2023-03-05T22:02:41.559Z,5.57
2023-03-05T22:05:12.211Z,5.47
2023-03-05T22:07:39.218Z,5.65
2023-03-05T22:10:05.945Z,5.48
2023-03-05T22:12:52.681Z,5.42
2023-03-05T22:15:19.602Z,5.42
2023-03-05T22:17:46.200Z,5.36
2023-03-05T22:20:12.797Z,5.35
2023-03-05T22:22:39.252Z,5.45
2023-03-05T22:25:06.017Z,5.56
2023-03-05T22:27:33.060Z,5.43
2023-03-05T22:30:00.239Z,5.55
2023-03-05T22:32:26.736Z,5.41
2023-03-05T22:34:56.452Z,5.39
2023-03-05T22:37:22.964Z,5.45
2023-03-05T22:39:53.320Z,5.54
2023-03-05T22:42:20.025Z,5.43
2023-03-05T22:44:46.576Z,5.39
2023-03-05T22:47:13.073Z,5.32
2023-03-05T22:49:39.534Z,5.42
2023-03-05T22:52:06.154Z,5.40
2023-03-05T22:54:32.673Z,5.83
2023-03-05T22:56:59.168Z,5.70
2023-03-05T22:59:25.602Z,5.61
2023-03-05T23:01:52.086Z,5.49
2023-03-05T23:04:29.381Z,5.44
2023-03-05T23:06:56.133Z,5.47
2023-03-05T23:09:22.600Z,5.61
2023-03-05T23:11:49.087Z,5.43
2023-03-05T23:14:15.523Z,5.37
2023-03-05T23:16:42.016Z,5.25
2023-03-05T23:19:08.458Z,5.44
2023-03-05T23:21:34.923Z,5.35
2023-03-05T23:24:01.367Z,5.31
2023-03-05T23:26:27.856Z,5.37
2023-03-05T23:28:54.277Z,5.45
2023-03-05T23:31:20.820Z,5.50
2023-03-05T23:33:47.307Z,5.27
2023-03-05T23:36:13.942Z,5.18
2023-03-05T23:38:40.432Z,5.23
2023-03-05T23:41:09.436Z,5.22
2023-03-05T23:43:36.010Z,5.19
2023-03-05T23:46:02.550Z,5.09
2023-03-05T23:48:29.679Z,5.06
2023-03-05T23:50:56.145Z,5.15
2023-03-05T23:53:29.548Z,5.28
2023-03-05T23:55:56.103Z,5.36
2023-03-05T23:58:23.008Z,5.12
